sensor_id;sensor_type;location;lat;lon;timestamp;temperature;humidity
10417;DHT22;62605;49.432;8.680;2023-12-29T00:00:02;9.50;99.90
10417;DHT22;62605;49.432;8.680;2023-12-29T00:02:30;9.50;99.90
10417;DHT22;62605;49.432;8.680;2023-12-29T00:04:57;9.50;99.90
10417;DHT22;62605;49.432;8.680;2023-12-29T00:07:24;9.40;99.90
10417;DHT22;62605;49.432;8.680;2023-12-29T00:09:51;9.40;99.90
10417;DHT22;62605;49.432;8.680;2023-12-29T00:12:18;9.20;99.90
10417;DHT22;62605;49.432;8.680;2023-12-29T00:14:47;9.20;99.90
10417;DHT22;62605;49.432;8.680;2023-12-29T00:17:14;9.20;99.90
10417;DHT22;62605;49.432;8.680;2023-12-29T00:19:41;9.30;99.90
10417;DHT22;62605;49.432;8.680;2023-12-29T00:22:09;9.30;99.90
10417;DHT22;62605;49.432;8.680;2023-12-29T00:24:36;9.30;99.90
10417;DHT22;62605;49.432;8.680;2023-12-29T00:27:21;9.40;99.90
10417;DHT22;62605;49.432;8.680;2023-12-29T00:29:50;9.40;99.90
10417;DHT22;62605;49.432;8.680;2023-12-29T00:32:18;9.30;99.90
10417;DHT22;62605;49.432;8.680;2023-12-29T00:34:45;9.30;99.90
10417;DHT22;62605;49.432;8.680;2023-12-29T00:37:12;9.30;99.90
10417;DHT22;62605;49.432;8.680;2023-12-29T00:39:39;9.30;99.90
10417;DHT22;62605;49.432;8.680;2023-12-29T00:42:07;9.30;99.90
10417;DHT22;62605;49.432;8.680;2023-12-29T00:44:34;9.40;99.90
10417;DHT22;62605;49.432;8.680;2023-12-29T00:47:03;9.40;99.90
10417;DHT22;62605;49.432;8.680;2023-12-29T00:49:30;9.40;99.90
10417;DHT22;62605;49.432;8.680;2023-12-29T00:51:58;9.50;99.90
10417;DHT22;62605;49.432;8.680;2023-12-29T00:54:26;9.40;99.90
10417;DHT22;62605;49.432;8.680;2023-12-29T00:56:53;9.50;99.90
10417;DHT22;62605;49.432;8.680;2023-12-29T01:05:33;9.70;99.90
10417;DHT22;62605;49.432;8.680;2023-12-29T01:08:08;9.70;99.90
10417;DHT22;62605;49.432;8.680;2023-12-29T01:10:40;9.60;99.90
10417;DHT22;62605;49.432;8.680;2023-12-29T01:40:50;9.50;99.90
10417;DHT22;62605;49.432;8.680;2023-12-29T01:43:18;9.40;99.90
10417;DHT22;62605;49.432;8.680;2023-12-29T01:46:04;9.40;99.90
10417;DHT22;62605;49.432;8.680;2023-12-29T03:33:32;8.10;99.90
10417;DHT22;62605;49.432;8.680;2023-12-29T03:36:36;8.10;99.90
10417;DHT22;62605;49.432;8.680;2023-12-29T03:39:05;8.10;99.90
10417;DHT22;62605;49.432;8.680;2023-12-29T03:41:38;8.10;99.90
10417;DHT22;62605;49.432;8.680;2023-12-29T03:44:06;8.10;99.90
10417;DHT22;62605;49.432;8.680;2023-12-29T03:46:33;8.00;99.90
10417;DHT22;62605;49.432;8.680;2023-12-29T04:01:11;8.00;99.90
10417;DHT22;62605;49.432;8.680;2023-12-29T04:31:16;8.40;99.90
10417;DHT22;62605;49.432;8.680;2023-12-29T04:33:51;8.30;99.90
10417;DHT22;62605;49.432;8.680;2023-12-29T04:42:14;8.20;99.90
10417;DHT22;62605;49.432;8.680;2023-12-29T04:44:44;8.20;99.90
10417;DHT22;62605;49.432;8.680;2023-12-29T04:47:15;8.30;99.90
10417;DHT22;62605;49.432;8.680;2023-12-29T04:49:50;8.40;99.90
10417;DHT22;62605;49.432;8.680;2023-12-29T04:52:24;8.50;99.90
10417;DHT22;62605;49.432;8.680;2023-12-29T04:54:53;8.50;99.90
10417;DHT22;62605;49.432;8.680;2023-12-29T04:57:20;8.60;99.90
10417;DHT22;62605;49.432;8.680;2023-12-29T04:59:51;8.50;99.90
10417;DHT22;62605;49.432;8.680;2023-12-29T05:02:33;8.50;99.90
10417;DHT22;62605;49.432;8.680;2023-12-29T05:05:17;8.40;99.90
10417;DHT22;62605;49.432;8.680;2023-12-29T05:07:45;8.40;99.90
10417;DHT22;62605;49.432;8.680;2023-12-29T05:10:13;8.40;99.90
10417;DHT22;62605;49.432;8.680;2023-12-29T05:12:43;8.40;99.90
10417;DHT22;62605;49.432;8.680;2023-12-29T05:15:13;8.30;99.90
10417;DHT22;62605;49.432;8.680;2023-12-29T05:17:43;8.40;99.90
10417;DHT22;62605;49.432;8.680;2023-12-29T05:20:11;8.30;99.90
10417;DHT22;62605;49.432;8.680;2023-12-29T05:30:51;8.40;99.90
10417;DHT22;62605;49.432;8.680;2023-12-29T05:33:36;8.50;99.90
10417;DHT22;62605;49.432;8.680;2023-12-29T05:49:26;8.30;99.90
10417;DHT22;62605;49.432;8.680;2023-12-29T05:51:55;8.30;99.90
10417;DHT22;62605;49.432;8.680;2023-12-29T05:54:23;8.30;99.90
10417;DHT22;62605;49.432;8.680;2023-12-29T05:56:54;8.30;99.90
10417;DHT22;62605;49.432;8.680;2023-12-29T05:59:25;8.40;99.90
10417;DHT22;62605;49.432;8.680;2023-12-29T06:01:53;8.30;99.90
10417;DHT22;62605;49.432;8.680;2023-12-29T06:04:29;8.40;99.90
10417;DHT22;62605;49.432;8.680;2023-12-29T06:27:08;8.60;99.90
10417;DHT22;62605;49.432;8.680;2023-12-29T06:29:40;8.60;99.90
10417;DHT22;62605;49.432;8.680;2023-12-29T06:32:08;8.60;99.90
10417;DHT22;62605;49.432;8.680;2023-12-29T06:38:02;8.60;99.90
10417;DHT22;62605;49.432;8.680;2023-12-29T06:40:40;8.60;99.90
10417;DHT22;62605;49.432;8.680;2023-12-29T06:43:08;8.60;99.90
10417;DHT22;62605;49.432;8.680;2023-12-29T06:45:35;8.60;99.90
10417;DHT22;62605;49.432;8.680;2023-12-29T06:48:03;8.60;99.90
10417;DHT22;62605;49.432;8.680;2023-12-29T06:50:30;8.60;99.90
10417;DHT22;62605;49.432;8.680;2023-12-29T06:52:58;8.60;99.90
10417;DHT22;62605;49.432;8.680;2023-12-29T06:55:25;8.60;99.90
10417;DHT22;62605;49.432;8.680;2023-12-29T06:57:53;8.70;99.90
10417;DHT22;62605;49.432;8.680;2023-12-29T07:00:22;8.70;99.90
10417;DHT22;62605;49.432;8.680;2023-12-29T07:02:49;8.70;99.90
10417;DHT22;62605;49.432;8.680;2023-12-29T07:05:16;8.80;99.90
10417;DHT22;62605;49.432;8.680;2023-12-29T07:07:44;8.80;99.90
10417;DHT22;62605;49.432;8.680;2023-12-29T07:10:12;8.80;99.90
10417;DHT22;62605;49.432;8.680;2023-12-29T07:12:41;8.80;99.90
10417;DHT22;62605;49.432;8.680;2023-12-29T07:15:08;8.80;99.90
10417;DHT22;62605;49.432;8.680;2023-12-29T07:17:37;8.80;99.90
10417;DHT22;62605;49.432;8.680;2023-12-29T07:20:06;8.80;99.90
10417;DHT22;62605;49.432;8.680;2023-12-29T07:22:34;8.80;99.90
10417;DHT22;62605;49.432;8.680;2023-12-29T07:25:01;8.80;99.90
10417;DHT22;62605;49.432;8.680;2023-12-29T07:27:29;8.90;99.90
10417;DHT22;62605;49.432;8.680;2023-12-29T07:29:57;8.90;99.90
10417;DHT22;62605;49.432;8.680;2023-12-29T07:32:24;8.90;99.90
10417;DHT22;62605;49.432;8.680;2023-12-29T07:34:53;8.90;99.90
10417;DHT22;62605;49.432;8.680;2023-12-29T07:37:20;9.00;99.90
10417;DHT22;62605;49.432;8.680;2023-12-29T07:39:47;9.00;99.90
10417;DHT22;62605;49.432;8.680;2023-12-29T07:42:14;9.00;99.90
10417;DHT22;62605;49.432;8.680;2023-12-29T07:44:44;9.00;99.90
10417;DHT22;62605;49.432;8.680;2023-12-29T07:47:12;9.00;99.90
10417;DHT22;62605;49.432;8.680;2023-12-29T07:49:41;9.00;99.90
10417;DHT22;62605;49.432;8.680;2023-12-29T07:52:10;9.00;99.90
10417;DHT22;62605;49.432;8.680;2023-12-29T07:54:37;9.10;99.90
10417;DHT22;62605;49.432;8.680;2023-12-29T07:57:05;9.10;99.90
10417;DHT22;62605;49.432;8.680;2023-12-29T07:59:32;9.10;99.90
10417;DHT22;62605;49.432;8.680;2023-12-29T08:01:59;9.10;99.90
10417;DHT22;62605;49.432;8.680;2023-12-29T08:04:26;9.10;99.90
10417;DHT22;62605;49.432;8.680;2023-12-29T08:06:53;9.20;99.90
10417;DHT22;62605;49.432;8.680;2023-12-29T08:09:22;9.20;99.90
10417;DHT22;62605;49.432;8.680;2023-12-29T08:11:49;9.30;99.90
10417;DHT22;62605;49.432;8.680;2023-12-29T08:14:16;9.30;99.90
10417;DHT22;62605;49.432;8.680;2023-12-29T08:16:44;9.30;99.90
10417;DHT22;62605;49.432;8.680;2023-12-29T08:19:12;9.40;99.90
10417;DHT22;62605;49.432;8.680;2023-12-29T08:21:40;9.40;99.90
10417;DHT22;62605;49.432;8.680;2023-12-29T08:24:08;9.40;99.90
10417;DHT22;62605;49.432;8.680;2023-12-29T08:26:43;9.50;99.90
10417;DHT22;62605;49.432;8.680;2023-12-29T08:29:10;9.50;99.90
10417;DHT22;62605;49.432;8.680;2023-12-29T08:31:37;9.50;99.90
10417;DHT22;62605;49.432;8.680;2023-12-29T08:34:04;9.60;99.90
10417;DHT22;62605;49.432;8.680;2023-12-29T08:36:32;9.60;99.90
10417;DHT22;62605;49.432;8.680;2023-12-29T08:38:59;9.70;99.90
10417;DHT22;62605;49.432;8.680;2023-12-29T08:41:26;9.70;99.90
10417;DHT22;62605;49.432;8.680;2023-12-29T08:43:54;9.70;99.90
10417;DHT22;62605;49.432;8.680;2023-12-29T08:46:21;9.80;99.90
10417;DHT22;62605;49.432;8.680;2023-12-29T08:48:51;9.90;99.90
10417;DHT22;62605;49.432;8.680;2023-12-29T08:51:18;9.80;99.90
10417;DHT22;62605;49.432;8.680;2023-12-29T08:53:45;9.80;99.90
10417;DHT22;62605;49.432;8.680;2023-12-29T08:56:13;9.80;99.90
10417;DHT22;62605;49.432;8.680;2023-12-29T08:58:40;9.80;99.90
10417;DHT22;62605;49.432;8.680;2023-12-29T09:01:09;9.90;99.90
10417;DHT22;62605;49.432;8.680;2023-12-29T09:03:36;9.90;99.90
10417;DHT22;62605;49.432;8.680;2023-12-29T09:06:04;9.90;99.90
10417;DHT22;62605;49.432;8.680;2023-12-29T09:08:34;9.90;99.90
10417;DHT22;62605;49.432;8.680;2023-12-29T09:11:02;9.90;99.90
10417;DHT22;62605;49.432;8.680;2023-12-29T09:13:29;9.90;99.90
10417;DHT22;62605;49.432;8.680;2023-12-29T09:15:58;10.00;99.90
10417;DHT22;62605;49.432;8.680;2023-12-29T09:18:26;9.90;99.90
10417;DHT22;62605;49.432;8.680;2023-12-29T09:20:54;9.90;99.90
10417;DHT22;62605;49.432;8.680;2023-12-29T09:23:21;9.90;99.90
10417;DHT22;62605;49.432;8.680;2023-12-29T09:25:48;9.90;99.90
10417;DHT22;62605;49.432;8.680;2023-12-29T09:28:16;10.00;99.90
10417;DHT22;62605;49.432;8.680;2023-12-29T09:30:43;10.00;99.90
10417;DHT22;62605;49.432;8.680;2023-12-29T09:33:10;10.00;99.90
10417;DHT22;62605;49.432;8.680;2023-12-29T09:35:39;10.10;99.90
10417;DHT22;62605;49.432;8.680;2023-12-29T09:38:07;10.00;99.90
10417;DHT22;62605;49.432;8.680;2023-12-29T09:40:35;10.10;99.90
10417;DHT22;62605;49.432;8.680;2023-12-29T09:43:03;10.10;99.90
10417;DHT22;62605;49.432;8.680;2023-12-29T09:45:33;10.10;99.90
10417;DHT22;62605;49.432;8.680;2023-12-29T09:48:07;10.20;99.90
10417;DHT22;62605;49.432;8.680;2023-12-29T09:50:35;10.20;99.90
10417;DHT22;62605;49.432;8.680;2023-12-29T09:53:04;10.20;99.90
10417;DHT22;62605;49.432;8.680;2023-12-29T09:55:33;10.30;99.90
10417;DHT22;62605;49.432;8.680;2023-12-29T09:58:01;10.30;99.90
10417;DHT22;62605;49.432;8.680;2023-12-29T10:00:29;10.30;99.90
10417;DHT22;62605;49.432;8.680;2023-12-29T10:02:58;10.40;99.90
10417;DHT22;62605;49.432;8.680;2023-12-29T10:05:25;10.50;99.90
10417;DHT22;62605;49.432;8.680;2023-12-29T10:07:53;10.50;99.90
10417;DHT22;62605;49.432;8.680;2023-12-29T10:10:25;10.50;99.90
10417;DHT22;62605;49.432;8.680;2023-12-29T10:12:53;10.50;99.90
10417;DHT22;62605;49.432;8.680;2023-12-29T10:15:29;10.60;99.90
10417;DHT22;62605;49.432;8.680;2023-12-29T10:18:07;10.70;99.90
10417;DHT22;62605;49.432;8.680;2023-12-29T10:20:43;10.70;99.90
10417;DHT22;62605;49.432;8.680;2023-12-29T10:23:15;10.80;99.90
10417;DHT22;62605;49.432;8.680;2023-12-29T10:25:45;10.80;99.90
10417;DHT22;62605;49.432;8.680;2023-12-29T10:28:13;10.80;99.90
10417;DHT22;62605;49.432;8.680;2023-12-29T10:30:41;10.80;99.90
10417;DHT22;62605;49.432;8.680;2023-12-29T10:33:08;10.90;99.90
10417;DHT22;62605;49.432;8.680;2023-12-29T10:35:36;10.80;99.90
10417;DHT22;62605;49.432;8.680;2023-12-29T10:38:11;10.80;99.90
10417;DHT22;62605;49.432;8.680;2023-12-29T10:40:40;10.90;99.90
10417;DHT22;62605;49.432;8.680;2023-12-29T10:43:10;10.90;99.90
10417;DHT22;62605;49.432;8.680;2023-12-29T10:45:37;11.00;99.90
10417;DHT22;62605;49.432;8.680;2023-12-29T10:48:05;11.10;99.90
10417;DHT22;62605;49.432;8.680;2023-12-29T10:50:42;11.10;99.90
10417;DHT22;62605;49.432;8.680;2023-12-29T10:53:13;11.10;99.90
10417;DHT22;62605;49.432;8.680;2023-12-29T10:55:40;11.20;99.90
10417;DHT22;62605;49.432;8.680;2023-12-29T10:58:09;11.20;99.90
10417;DHT22;62605;49.432;8.680;2023-12-29T11:00:37;11.20;99.90
10417;DHT22;62605;49.432;8.680;2023-12-29T11:03:05;11.20;99.90
10417;DHT22;62605;49.432;8.680;2023-12-29T11:05:32;11.30;99.90
10417;DHT22;62605;49.432;8.680;2023-12-29T11:08:00;11.40;99.90
10417;DHT22;62605;49.432;8.680;2023-12-29T11:10:30;11.40;99.90
10417;DHT22;62605;49.432;8.680;2023-12-29T11:12:58;11.50;99.90
10417;DHT22;62605;49.432;8.680;2023-12-29T11:15:27;11.50;99.90
10417;DHT22;62605;49.432;8.680;2023-12-29T11:17:56;11.50;99.90
10417;DHT22;62605;49.432;8.680;2023-12-29T11:20:25;11.50;99.90
10417;DHT22;62605;49.432;8.680;2023-12-29T11:22:53;11.60;99.90
10417;DHT22;62605;49.432;8.680;2023-12-29T11:25:21;11.70;99.90
10417;DHT22;62605;49.432;8.680;2023-12-29T11:27:49;11.70;99.90
10417;DHT22;62605;49.432;8.680;2023-12-29T11:30:17;11.70;99.90
10417;DHT22;62605;49.432;8.680;2023-12-29T11:32:53;11.70;99.90
10417;DHT22;62605;49.432;8.680;2023-12-29T11:35:27;11.80;99.90
10417;DHT22;62605;49.432;8.680;2023-12-29T11:38:19;11.80;99.90
10417;DHT22;62605;49.432;8.680;2023-12-29T11:40:57;12.00;99.90
10417;DHT22;62605;49.432;8.680;2023-12-29T11:46:37;12.00;99.90
10417;DHT22;62605;49.432;8.680;2023-12-29T11:49:06;12.00;99.90
10417;DHT22;62605;49.432;8.680;2023-12-29T11:51:35;12.00;99.90
10417;DHT22;62605;49.432;8.680;2023-12-29T11:54:23;12.20;99.90
10417;DHT22;62605;49.432;8.680;2023-12-29T11:57:03;12.30;99.90
10417;DHT22;62605;49.432;8.680;2023-12-29T11:59:31;12.40;99.90
10417;DHT22;62605;49.432;8.680;2023-12-29T12:01:59;12.40;99.90
10417;DHT22;62605;49.432;8.680;2023-12-29T12:04:37;12.40;99.90
10417;DHT22;62605;49.432;8.680;2023-12-29T12:07:07;12.40;99.90
10417;DHT22;62605;49.432;8.680;2023-12-29T12:09:35;12.50;99.90
10417;DHT22;62605;49.432;8.680;2023-12-29T12:12:03;12.60;99.90
10417;DHT22;62605;49.432;8.680;2023-12-29T12:14:44;12.60;99.90
10417;DHT22;62605;49.432;8.680;2023-12-29T12:17:29;12.80;99.90
10417;DHT22;62605;49.432;8.680;2023-12-29T12:20:01;12.80;99.90
10417;DHT22;62605;49.432;8.680;2023-12-29T12:22:30;12.90;99.90
10417;DHT22;62605;49.432;8.680;2023-12-29T12:24:59;12.90;99.90
10417;DHT22;62605;49.432;8.680;2023-12-29T12:27:27;13.00;99.90
10417;DHT22;62605;49.432;8.680;2023-12-29T12:29:55;12.90;99.90
10417;DHT22;62605;49.432;8.680;2023-12-29T12:32:25;12.90;99.90
10417;DHT22;62605;49.432;8.680;2023-12-29T12:34:53;12.80;99.90
10417;DHT22;62605;49.432;8.680;2023-12-29T12:37:22;12.70;99.90
10417;DHT22;62605;49.432;8.680;2023-12-29T12:39:50;12.60;99.90
10417;DHT22;62605;49.432;8.680;2023-12-29T12:42:22;12.60;99.90
10417;DHT22;62605;49.432;8.680;2023-12-29T12:44:54;12.50;99.90
10417;DHT22;62605;49.432;8.680;2023-12-29T12:47:32;12.60;99.90
10417;DHT22;62605;49.432;8.680;2023-12-29T12:50:00;12.60;99.90
10417;DHT22;62605;49.432;8.680;2023-12-29T12:52:32;12.60;99.90
10417;DHT22;62605;49.432;8.680;2023-12-29T12:55:00;12.60;99.90
10417;DHT22;62605;49.432;8.680;2023-12-29T12:57:27;12.60;99.90
10417;DHT22;62605;49.432;8.680;2023-12-29T12:59:56;12.60;99.90
10417;DHT22;62605;49.432;8.680;2023-12-29T13:02:23;12.50;99.90
10417;DHT22;62605;49.432;8.680;2023-12-29T13:04:58;12.50;99.90
10417;DHT22;62605;49.432;8.680;2023-12-29T13:07:34;12.40;99.90
10417;DHT22;62605;49.432;8.680;2023-12-29T13:10:02;12.40;99.90
10417;DHT22;62605;49.432;8.680;2023-12-29T13:12:31;12.50;99.90
10417;DHT22;62605;49.432;8.680;2023-12-29T13:15:05;12.50;99.90
10417;DHT22;62605;49.432;8.680;2023-12-29T13:17:34;12.60;99.90
10417;DHT22;62605;49.432;8.680;2023-12-29T13:20:01;12.60;99.90
10417;DHT22;62605;49.432;8.680;2023-12-29T13:22:30;12.60;99.90
10417;DHT22;62605;49.432;8.680;2023-12-29T13:25:00;12.60;99.90
10417;DHT22;62605;49.432;8.680;2023-12-29T13:27:27;12.50;99.90
10417;DHT22;62605;49.432;8.680;2023-12-29T13:29:55;12.50;99.90
10417;DHT22;62605;49.432;8.680;2023-12-29T13:32:24;12.40;99.90
10417;DHT22;62605;49.432;8.680;2023-12-29T13:35:01;12.40;99.90
10417;DHT22;62605;49.432;8.680;2023-12-29T13:37:35;12.30;99.90
10417;DHT22;62605;49.432;8.680;2023-12-29T13:40:11;12.20;99.90
10417;DHT22;62605;49.432;8.680;2023-12-29T13:42:42;12.20;99.90
10417;DHT22;62605;49.432;8.680;2023-12-29T13:45:10;12.10;99.90
10417;DHT22;62605;49.432;8.680;2023-12-29T13:47:38;12.10;99.90
10417;DHT22;62605;49.432;8.680;2023-12-29T13:50:09;12.20;99.90
10417;DHT22;62605;49.432;8.680;2023-12-29T13:52:37;12.10;99.90
10417;DHT22;62605;49.432;8.680;2023-12-29T13:55:07;12.20;99.90
10417;DHT22;62605;49.432;8.680;2023-12-29T13:57:35;12.20;99.90
10417;DHT22;62605;49.432;8.680;2023-12-29T14:00:16;12.30;99.90
10417;DHT22;62605;49.432;8.680;2023-12-29T14:02:44;12.30;99.90
10417;DHT22;62605;49.432;8.680;2023-12-29T14:05:15;12.20;99.90
10417;DHT22;62605;49.432;8.680;2023-12-29T14:07:46;12.20;99.90
10417;DHT22;62605;49.432;8.680;2023-12-29T14:10:16;12.20;99.90
10417;DHT22;62605;49.432;8.680;2023-12-29T14:12:43;12.20;99.90
10417;DHT22;62605;49.432;8.680;2023-12-29T14:15:11;12.20;99.90
10417;DHT22;62605;49.432;8.680;2023-12-29T14:17:39;12.20;99.90
10417;DHT22;62605;49.432;8.680;2023-12-29T14:20:07;12.20;99.90
10417;DHT22;62605;49.432;8.680;2023-12-29T14:22:35;12.30;99.90
10417;DHT22;62605;49.432;8.680;2023-12-29T14:25:03;12.20;99.90
10417;DHT22;62605;49.432;8.680;2023-12-29T14:27:32;12.20;99.90
10417;DHT22;62605;49.432;8.680;2023-12-29T14:30:00;12.20;99.90
10417;DHT22;62605;49.432;8.680;2023-12-29T14:32:27;12.10;99.90
10417;DHT22;62605;49.432;8.680;2023-12-29T14:34:56;12.00;99.90
10417;DHT22;62605;49.432;8.680;2023-12-29T14:37:23;12.00;99.90
10417;DHT22;62605;49.432;8.680;2023-12-29T14:39:52;12.00;99.90
10417;DHT22;62605;49.432;8.680;2023-12-29T14:42:20;11.90;99.90
10417;DHT22;62605;49.432;8.680;2023-12-29T14:44:49;11.90;99.90
10417;DHT22;62605;49.432;8.680;2023-12-29T14:47:16;11.80;99.90
10417;DHT22;62605;49.432;8.680;2023-12-29T14:49:44;11.80;99.90
10417;DHT22;62605;49.432;8.680;2023-12-29T14:52:11;11.80;99.90
10417;DHT22;62605;49.432;8.680;2023-12-29T14:54:38;11.80;99.90
10417;DHT22;62605;49.432;8.680;2023-12-29T14:57:07;11.70;99.90
10417;DHT22;62605;49.432;8.680;2023-12-29T14:59:34;11.70;99.90
10417;DHT22;62605;49.432;8.680;2023-12-29T15:02:04;11.70;99.90
10417;DHT22;62605;49.432;8.680;2023-12-29T15:04:34;11.60;99.90
10417;DHT22;62605;49.432;8.680;2023-12-29T15:07:01;11.60;99.90
10417;DHT22;62605;49.432;8.680;2023-12-29T15:09:29;11.50;99.90
10417;DHT22;62605;49.432;8.680;2023-12-29T15:11:57;11.50;99.90
10417;DHT22;62605;49.432;8.680;2023-12-29T15:14:24;11.50;99.90
10417;DHT22;62605;49.432;8.680;2023-12-29T15:16:51;11.60;99.90
10417;DHT22;62605;49.432;8.680;2023-12-29T15:19:20;11.60;99.90
10417;DHT22;62605;49.432;8.680;2023-12-29T15:21:47;11.50;99.90
10417;DHT22;62605;49.432;8.680;2023-12-29T15:24:18;11.50;99.90
10417;DHT22;62605;49.432;8.680;2023-12-29T15:26:46;11.40;99.90
10417;DHT22;62605;49.432;8.680;2023-12-29T15:29:13;11.40;99.90
10417;DHT22;62605;49.432;8.680;2023-12-29T15:31:42;11.40;99.90
10417;DHT22;62605;49.432;8.680;2023-12-29T15:34:11;11.30;99.90
10417;DHT22;62605;49.432;8.680;2023-12-29T15:36:39;11.30;99.90
10417;DHT22;62605;49.432;8.680;2023-12-29T15:39:07;11.20;99.90
10417;DHT22;62605;49.432;8.680;2023-12-29T15:41:34;11.20;99.90
10417;DHT22;62605;49.432;8.680;2023-12-29T15:44:02;11.10;99.90
10417;DHT22;62605;49.432;8.680;2023-12-29T15:46:32;11.10;99.90
10417;DHT22;62605;49.432;8.680;2023-12-29T15:48:59;11.00;99.90
10417;DHT22;62605;49.432;8.680;2023-12-29T15:51:28;11.00;99.90
10417;DHT22;62605;49.432;8.680;2023-12-29T15:53:57;11.00;99.90
10417;DHT22;62605;49.432;8.680;2023-12-29T15:56:25;10.90;99.90
10417;DHT22;62605;49.432;8.680;2023-12-29T15:58:52;10.90;99.90
10417;DHT22;62605;49.432;8.680;2023-12-29T16:01:23;10.90;99.90
10417;DHT22;62605;49.432;8.680;2023-12-29T16:03:53;10.80;99.90
10417;DHT22;62605;49.432;8.680;2023-12-29T16:06:20;10.90;99.90
10417;DHT22;62605;49.432;8.680;2023-12-29T16:08:48;10.90;99.90
10417;DHT22;62605;49.432;8.680;2023-12-29T16:11:22;10.90;99.90
10417;DHT22;62605;49.432;8.680;2023-12-29T16:13:49;10.90;99.90
10417;DHT22;62605;49.432;8.680;2023-12-29T16:16:16;11.00;99.90
10417;DHT22;62605;49.432;8.680;2023-12-29T16:18:44;11.00;99.90
10417;DHT22;62605;49.432;8.680;2023-12-29T16:21:11;11.10;99.90
10417;DHT22;62605;49.432;8.680;2023-12-29T16:23:43;11.10;99.90
10417;DHT22;62605;49.432;8.680;2023-12-29T16:26:10;11.10;99.90
10417;DHT22;62605;49.432;8.680;2023-12-29T16:28:39;11.10;99.90
10417;DHT22;62605;49.432;8.680;2023-12-29T16:31:07;11.10;99.90
10417;DHT22;62605;49.432;8.680;2023-12-29T16:33:35;11.00;99.90
10417;DHT22;62605;49.432;8.680;2023-12-29T16:36:07;11.10;99.90
10417;DHT22;62605;49.432;8.680;2023-12-29T16:38:35;11.00;99.90
10417;DHT22;62605;49.432;8.680;2023-12-29T16:41:02;11.00;99.90
10417;DHT22;62605;49.432;8.680;2023-12-29T16:43:29;10.90;99.90
10417;DHT22;62605;49.432;8.680;2023-12-29T16:45:58;10.90;99.90
10417;DHT22;62605;49.432;8.680;2023-12-29T16:48:25;10.90;99.90
10417;DHT22;62605;49.432;8.680;2023-12-29T16:50:52;11.00;99.90
10417;DHT22;62605;49.432;8.680;2023-12-29T16:53:19;11.00;99.90
10417;DHT22;62605;49.432;8.680;2023-12-29T16:55:48;11.00;99.90
10417;DHT22;62605;49.432;8.680;2023-12-29T16:58:15;11.00;99.90
10417;DHT22;62605;49.432;8.680;2023-12-29T17:00:45;11.00;99.90
10417;DHT22;62605;49.432;8.680;2023-12-29T17:03:14;11.00;99.90
10417;DHT22;62605;49.432;8.680;2023-12-29T17:05:41;10.90;99.90
10417;DHT22;62605;49.432;8.680;2023-12-29T17:08:08;11.00;99.90
10417;DHT22;62605;49.432;8.680;2023-12-29T17:10:35;11.00;99.90
10417;DHT22;62605;49.432;8.680;2023-12-29T17:13:02;11.00;99.90
10417;DHT22;62605;49.432;8.680;2023-12-29T17:15:30;10.90;99.90
10417;DHT22;62605;49.432;8.680;2023-12-29T17:17:57;10.90;99.90
10417;DHT22;62605;49.432;8.680;2023-12-29T17:20:26;10.90;99.90
10417;DHT22;62605;49.432;8.680;2023-12-29T17:22:53;10.90;99.90
10417;DHT22;62605;49.432;8.680;2023-12-29T17:25:20;10.90;99.90
10417;DHT22;62605;49.432;8.680;2023-12-29T17:27:48;10.90;99.90
10417;DHT22;62605;49.432;8.680;2023-12-29T17:30:15;10.90;99.90
10417;DHT22;62605;49.432;8.680;2023-12-29T17:32:44;10.90;99.90
10417;DHT22;62605;49.432;8.680;2023-12-29T17:35:11;10.80;99.90
10417;DHT22;62605;49.432;8.680;2023-12-29T17:37:40;10.80;99.90
10417;DHT22;62605;49.432;8.680;2023-12-29T17:40:08;10.90;99.90
10417;DHT22;62605;49.432;8.680;2023-12-29T17:42:35;10.90;99.90
10417;DHT22;62605;49.432;8.680;2023-12-29T17:45:02;10.90;99.90
10417;DHT22;62605;49.432;8.680;2023-12-29T17:47:31;10.90;99.90
10417;DHT22;62605;49.432;8.680;2023-12-29T17:49:58;10.90;99.90
10417;DHT22;62605;49.432;8.680;2023-12-29T17:52:26;10.90;99.90
10417;DHT22;62605;49.432;8.680;2023-12-29T17:54:54;10.90;99.90
10417;DHT22;62605;49.432;8.680;2023-12-29T17:57:21;10.90;99.90
10417;DHT22;62605;49.432;8.680;2023-12-29T17:59:49;10.90;99.90
10417;DHT22;62605;49.432;8.680;2023-12-29T18:02:16;10.90;99.90
10417;DHT22;62605;49.432;8.680;2023-12-29T18:04:43;11.00;99.90
10417;DHT22;62605;49.432;8.680;2023-12-29T18:07:12;10.90;99.90
10417;DHT22;62605;49.432;8.680;2023-12-29T18:09:39;10.90;99.90
10417;DHT22;62605;49.432;8.680;2023-12-29T18:12:08;10.90;99.90
10417;DHT22;62605;49.432;8.680;2023-12-29T18:14:38;11.00;99.90
10417;DHT22;62605;49.432;8.680;2023-12-29T18:17:05;11.00;99.90
10417;DHT22;62605;49.432;8.680;2023-12-29T18:19:36;11.10;99.90
10417;DHT22;62605;49.432;8.680;2023-12-29T18:22:04;11.10;99.90
10417;DHT22;62605;49.432;8.680;2023-12-29T18:24:31;11.00;99.90
10417;DHT22;62605;49.432;8.680;2023-12-29T18:26:58;11.00;99.90
10417;DHT22;62605;49.432;8.680;2023-12-29T18:29:27;11.00;99.90
10417;DHT22;62605;49.432;8.680;2023-12-29T18:31:54;11.00;99.90
10417;DHT22;62605;49.432;8.680;2023-12-29T18:34:21;10.90;99.90
10417;DHT22;62605;49.432;8.680;2023-12-29T18:36:49;10.90;99.90
10417;DHT22;62605;49.432;8.680;2023-12-29T18:39:16;10.90;99.90
10417;DHT22;62605;49.432;8.680;2023-12-29T18:41:43;10.90;99.90
10417;DHT22;62605;49.432;8.680;2023-12-29T18:44:11;10.90;99.90
10417;DHT22;62605;49.432;8.680;2023-12-29T18:46:40;10.90;99.90
10417;DHT22;62605;49.432;8.680;2023-12-29T18:49:07;10.90;99.90
10417;DHT22;62605;49.432;8.680;2023-12-29T18:51:35;10.90;99.90
10417;DHT22;62605;49.432;8.680;2023-12-29T18:54:03;10.90;99.90
10417;DHT22;62605;49.432;8.680;2023-12-29T18:56:30;10.90;99.90
10417;DHT22;62605;49.432;8.680;2023-12-29T18:58:57;11.00;99.90
10417;DHT22;62605;49.432;8.680;2023-12-29T19:01:25;11.00;99.90
10417;DHT22;62605;49.432;8.680;2023-12-29T19:03:54;11.00;99.90
10417;DHT22;62605;49.432;8.680;2023-12-29T19:06:24;10.90;99.90
10417;DHT22;62605;49.432;8.680;2023-12-29T19:08:52;10.90;99.90
10417;DHT22;62605;49.432;8.680;2023-12-29T19:11:20;10.90;99.90
10417;DHT22;62605;49.432;8.680;2023-12-29T19:13:46;10.90;99.90
10417;DHT22;62605;49.432;8.680;2023-12-29T19:16:19;10.90;99.90
10417;DHT22;62605;49.432;8.680;2023-12-29T19:18:47;10.90;99.90
10417;DHT22;62605;49.432;8.680;2023-12-29T19:21:15;11.00;99.90
10417;DHT22;62605;49.432;8.680;2023-12-29T19:23:43;11.00;99.90
10417;DHT22;62605;49.432;8.680;2023-12-29T19:26:17;10.90;99.90
10417;DHT22;62605;49.432;8.680;2023-12-29T19:28:44;10.90;99.90
10417;DHT22;62605;49.432;8.680;2023-12-29T19:31:12;10.90;99.90
10417;DHT22;62605;49.432;8.680;2023-12-29T19:33:39;10.90;99.90
10417;DHT22;62605;49.432;8.680;2023-12-29T19:36:07;10.80;99.90
10417;DHT22;62605;49.432;8.680;2023-12-29T19:38:37;10.80;99.90